aviador You're here:

FMCH Decoded Metar

MORONI in COMOROS ISLANDS
Report Time2017-12-11 05:00:00
UTC Time2017-12-11 05:39:37
Flight Rules vfr VFR
Wind340° at 05 kt
W.Decomp.*RWY 02: 4.1 kt HW 2.8 kt LCW
W.Rank340° ranks 19
Current wind is below 340° avg. (5.9)
Visibility9999 m
Phenomena:N/A
Clouds:Few 020 Hf
Expected CloudBase > 2,000 ft AGL from Temp-Dew spread
CeilingNone
Temp29°C (ISA +14)
Dew Point24°C (74% RH)
Heat Index33.5°C
QNH1013 hPa
Density Alt2,116 ft
Elevation95 ft
Report Wrong Elevation
Raw Report
FMCH 110500Z 34005KT 320V020 9999 FEW020 29/24 Q1013 NOSIG=

Extra information for FMCH:More info

Metar Taf Metar & Taf Last 4 Metars F.Rules Stats Wind Profile Meteogram Temp Stats Airport Information Weather charts Add Link Nearby VenuesMetar ALERT Operation Metar Decoded Social comments